sensor_id;sensor_type;location;lat;lon;timestamp;pressure;altitude;pressure_sealevel;temperature;humidity
70343;BME280;57767;42.068;24.752;2023-02-01T00:00:31;98970.41;;;4.03;53.09
70343;BME280;57767;42.068;24.752;2023-02-01T00:01:34;98963.88;;;3.99;53.34
70343;BME280;57767;42.068;24.752;2023-02-01T00:02:36;98963.53;;;3.93;52.94
70343;BME280;57767;42.068;24.752;2023-02-01T00:03:41;98964.34;;;3.94;53.51
70343;BME280;57767;42.068;24.752;2023-02-01T00:04:43;98951.44;;;3.84;52.60
70343;BME280;57767;42.068;24.752;2023-02-01T00:05:44;98966.47;;;3.99;53.01
70343;BME280;57767;42.068;24.752;2023-02-01T00:06:55;98952.09;;;3.94;52.82
70343;BME280;57767;42.068;24.752;2023-02-01T00:07:57;98980.34;;;3.99;52.49
70343;BME280;57767;42.068;24.752;2023-02-01T00:08:59;98974.31;;;3.99;52.64
70343;BME280;57767;42.068;24.752;2023-02-01T00:10:01;98960.09;;;3.93;52.88
70343;BME280;57767;42.068;24.752;2023-02-01T00:11:08;98975.13;;;3.99;52.60
70343;BME280;57767;42.068;24.752;2023-02-01T00:12:10;98974.31;;;3.99;52.83
70343;BME280;57767;42.068;24.752;2023-02-01T00:13:12;98975.94;;;4.00;52.91
70343;BME280;57767;42.068;24.752;2023-02-01T00:14:13;98974.81;;;4.02;52.94
70343;BME280;57767;42.068;24.752;2023-02-01T00:15:15;98966.31;;;4.00;52.75
70343;BME280;57767;42.068;24.752;2023-02-01T00:16:20;98964.03;;;3.97;52.79
70343;BME280;57767;42.068;24.752;2023-02-01T00:17:22;98975.78;;;4.01;52.47
70343;BME280;57767;42.068;24.752;2023-02-01T00:18:24;98967.16;;;3.92;52.66
70343;BME280;57767;42.068;24.752;2023-02-01T00:19:25;98975.59;;;3.94;53.46
70343;BME280;57767;42.068;24.752;2023-02-01T00:20:27;98974.31;;;3.99;53.12
70343;BME280;57767;42.068;24.752;2023-02-01T00:21:30;98979.22;;;4.02;53.25
70343;BME280;57767;42.068;24.752;2023-02-01T00:22:32;98982.97;;;3.99;52.78
70343;BME280;57767;42.068;24.752;2023-02-01T00:23:35;98984.28;;;4.03;53.06
70343;BME280;57767;42.068;24.752;2023-02-01T00:24:37;98978.91;;;4.05;52.36
70343;BME280;57767;42.068;24.752;2023-02-01T00:25:38;98973.00;;;3.94;52.38
70343;BME280;57767;42.068;24.752;2023-02-01T00:26:43;98975.63;;;4.03;52.48
70343;BME280;57767;42.068;24.752;2023-02-01T00:27:49;98982.34;;;4.05;52.56
70343;BME280;57767;42.068;24.752;2023-02-01T00:28:51;98980.84;;;4.03;52.07
70343;BME280;57767;42.068;24.752;2023-02-01T00:29:56;98977.25;;;4.04;52.53
70343;BME280;57767;42.068;24.752;2023-02-01T00:30:59;98979.53;;;3.99;52.05
70343;BME280;57767;42.068;24.752;2023-02-01T00:32:01;98982.50;;;4.04;52.12
70343;BME280;57767;42.068;24.752;2023-02-01T00:33:03;98973.19;;;4.01;51.84
70343;BME280;57767;42.068;24.752;2023-02-01T00:34:05;98986.72;;;3.96;52.38
70343;BME280;57767;42.068;24.752;2023-02-01T00:35:07;98976.44;;;3.95;51.94
70343;BME280;57767;42.068;24.752;2023-02-01T00:36:09;98977.91;;;3.97;52.64
70343;BME280;57767;42.068;24.752;2023-02-01T00:37:11;98974.00;;;4.02;52.11
70343;BME280;57767;42.068;24.752;2023-02-01T00:38:13;98980.84;;;4.03;52.15
70343;BME280;57767;42.068;24.752;2023-02-01T00:39:15;98975.94;;;4.00;51.87
70343;BME280;57767;42.068;24.752;2023-02-01T00:40:17;98976.28;;;4.05;52.16
70343;BME280;57767;42.068;24.752;2023-02-01T00:41:20;98986.09;;;4.03;52.59
70343;BME280;57767;42.068;24.752;2023-02-01T00:42:22;98969.41;;;3.95;52.14
70343;BME280;57767;42.068;24.752;2023-02-01T00:43:24;98969.09;;;3.99;51.52
70343;BME280;57767;42.068;24.752;2023-02-01T00:44:25;98978.91;;;4.05;52.06
70343;BME280;57767;42.068;24.752;2023-02-01T00:45:28;98973.84;;;4.03;51.57
70343;BME280;57767;42.068;24.752;2023-02-01T00:46:30;98965.81;;;3.96;51.86
70343;BME280;57767;42.068;24.752;2023-02-01T00:47:32;98971.84;;;3.97;51.21
70343;BME280;57767;42.068;24.752;2023-02-01T00:48:33;98976.75;;;4.00;51.35
70343;BME280;57767;42.068;24.752;2023-02-01T00:49:35;98960.91;;;3.93;52.04
70343;BME280;57767;42.068;24.752;2023-02-01T00:50:42;98969.41;;;3.95;51.62
70343;BME280;57767;42.068;24.752;2023-02-01T00:51:43;98985.59;;;3.99;51.90
70343;BME280;57767;42.068;24.752;2023-02-01T00:52:45;98980.66;;;3.96;52.34
70343;BME280;57767;42.068;24.752;2023-02-01T00:53:47;98978.06;;;3.96;51.75
70343;BME280;57767;42.068;24.752;2023-02-01T00:54:49;98982.47;;;3.95;51.68
70343;BME280;57767;42.068;24.752;2023-02-01T00:55:51;98974.97;;;3.92;51.88
70343;BME280;57767;42.068;24.752;2023-02-01T00:56:52;98981.34;;;3.98;52.42
70343;BME280;57767;42.068;24.752;2023-02-01T00:57:54;98986.41;;;4.00;52.10
70343;BME280;57767;42.068;24.752;2023-02-01T00:58:56;98983.13;;;3.97;52.09
70343;BME280;57767;42.068;24.752;2023-02-01T00:59:58;98965.81;;;3.88;52.10
70343;BME280;57767;42.068;24.752;2023-02-01T01:01:06;98990.31;;;3.95;51.68
70343;BME280;57767;42.068;24.752;2023-02-01T01:02:08;98976.94;;;3.90;51.90
70343;BME280;57767;42.068;24.752;2023-02-01T01:03:10;98969.56;;;3.86;52.63
70343;BME280;57767;42.068;24.752;2023-02-01T01:04:20;98982.81;;;3.92;52.01
70343;BME280;57767;42.068;24.752;2023-02-01T01:05:22;98984.09;;;3.96;52.49
70343;BME280;57767;42.068;24.752;2023-02-01T01:06:27;98978.56;;;3.91;52.31
70343;BME280;57767;42.068;24.752;2023-02-01T01:07:30;98973.97;;;3.85;52.71
70343;BME280;57767;42.068;24.752;2023-02-01T01:08:32;98974.47;;;3.89;52.53
70343;BME280;57767;42.068;24.752;2023-02-01T01:09:34;98969.56;;;3.78;52.68
70343;BME280;57767;42.068;24.752;2023-02-01T01:10:35;98959.78;;;3.80;52.82
70343;BME280;57767;42.068;24.752;2023-02-01T01:11:38;98976.25;;;3.80;52.84
70343;BME280;57767;42.068;24.752;2023-02-01T01:12:39;98966.47;;;3.74;52.72
70343;BME280;57767;42.068;24.752;2023-02-01T01:13:42;98968.91;;;3.76;52.78
70343;BME280;57767;42.068;24.752;2023-02-01T01:14:44;98954.03;;;3.68;53.00
70343;BME280;57767;42.068;24.752;2023-02-01T01:15:45;98976.59;;;3.77;52.95
70343;BME280;57767;42.068;24.752;2023-02-01T01:16:47;98971.69;;;3.74;52.35
70343;BME280;57767;42.068;24.752;2023-02-01T01:17:51;98967.75;;;3.70;52.84
70343;BME280;57767;42.068;24.752;2023-02-01T01:18:54;98975.59;;;3.70;52.60
70343;BME280;57767;42.068;24.752;2023-02-01T01:19:56;98966.47;;;3.66;53.06
70343;BME280;57767;42.068;24.752;2023-02-01T01:21:00;98950.44;;;3.69;52.71
70343;BME280;57767;42.068;24.752;2023-02-01T01:22:02;98961.72;;;3.70;53.19
70343;BME280;57767;42.068;24.752;2023-02-01T01:23:05;98966.78;;;3.71;52.75
70343;BME280;57767;42.068;24.752;2023-02-01T01:24:07;98968.41;;;3.72;53.08
70343;BME280;57767;42.068;24.752;2023-02-01T01:25:09;98954.19;;;3.58;52.31
70343;BME280;57767;42.068;24.752;2023-02-01T01:26:18;98969.53;;;3.70;52.94
70343;BME280;57767;42.068;24.752;2023-02-01T01:27:21;98961.41;;;3.65;52.89
70343;BME280;57767;42.068;24.752;2023-02-01T01:28:25;98956.81;;;3.58;53.27
70343;BME280;57767;42.068;24.752;2023-02-01T01:29:27;98980.00;;;3.70;53.21
70343;BME280;57767;42.068;24.752;2023-02-01T01:30:29;98976.09;;;3.66;52.88
70343;BME280;57767;42.068;24.752;2023-02-01T01:31:31;98979.50;;;3.66;53.45
70343;BME280;57767;42.068;24.752;2023-02-01T01:32:33;98971.69;;;3.66;52.47
70343;BME280;57767;42.068;24.752;2023-02-01T01:33:35;98974.28;;;3.66;52.85
70343;BME280;57767;42.068;24.752;2023-02-01T01:34:36;98971.34;;;3.61;53.00
70343;BME280;57767;42.068;24.752;2023-02-01T01:35:38;98954.69;;;3.54;52.60
70343;BME280;57767;42.068;24.752;2023-02-01T01:36:40;98948.66;;;3.53;52.96
70343;BME280;57767;42.068;24.752;2023-02-01T01:37:42;98969.69;;;3.60;52.82
70343;BME280;57767;42.068;24.752;2023-02-01T01:38:43;98968.88;;;3.59;53.09
70343;BME280;57767;42.068;24.752;2023-02-01T01:39:45;98971.81;;;3.56;52.95
70343;BME280;57767;42.068;24.752;2023-02-01T01:40:47;98972.97;;;3.54;52.92
70343;BME280;57767;42.068;24.752;2023-02-01T01:41:51;98958.28;;;3.53;53.45
70343;BME280;57767;42.068;24.752;2023-02-01T01:42:53;98967.09;;;3.60;53.60
70343;BME280;57767;42.068;24.752;2023-02-01T01:44:06;98963.50;;;3.53;53.65
70343;BME280;57767;42.068;24.752;2023-02-01T01:46:39;98969.03;;;3.58;52.96
70343;BME280;57767;42.068;24.752;2023-02-01T01:47:44;98967.41;;;3.49;53.17
70343;BME280;57767;42.068;24.752;2023-02-01T01:49:07;98968.03;;;3.43;53.33
70343;BME280;57767;42.068;24.752;2023-02-01T01:50:11;98967.38;;;3.41;54.19
70343;BME280;57767;42.068;24.752;2023-02-01T01:51:17;98974.88;;;3.44;53.43
70343;BME280;57767;42.068;24.752;2023-02-01T01:52:20;98967.19;;;3.42;53.56
70343;BME280;57767;42.068;24.752;2023-02-01T01:53:27;98975.38;;;3.47;53.64
70343;BME280;57767;42.068;24.752;2023-02-01T01:54:37;98979.78;;;3.47;53.59
70343;BME280;57767;42.068;24.752;2023-02-01T01:55:43;98979.94;;;3.45;54.05
70343;BME280;57767;42.068;24.752;2023-02-01T01:56:50;98965.09;;;3.38;53.52
70343;BME280;57767;42.068;24.752;2023-02-01T01:57:58;98978.47;;;3.43;54.09
70343;BME280;57767;42.068;24.752;2023-02-01T01:59:01;98973.25;;;3.43;54.16
70343;BME280;57767;42.068;24.752;2023-02-01T02:00:11;98968.03;;;3.43;54.17
70343;BME280;57767;42.068;24.752;2023-02-01T02:01:13;98970.31;;;3.38;53.84
70343;BME280;57767;42.068;24.752;2023-02-01T02:02:15;98974.19;;;3.34;53.65
70343;BME280;57767;42.068;24.752;2023-02-01T02:04:22;98962.44;;;3.30;54.49
70343;BME280;57767;42.068;24.752;2023-02-01T02:05:25;98962.13;;;3.33;53.68
70343;BME280;57767;42.068;24.752;2023-02-01T02:06:49;98967.66;;;3.30;54.14
70343;BME280;57767;42.068;24.752;2023-02-01T02:07:57;98974.19;;;3.34;54.56
70343;BME280;57767;42.068;24.752;2023-02-01T02:08:59;98959.81;;;3.21;54.21
70343;BME280;57767;42.068;24.752;2023-02-01T02:10:05;98969.63;;;3.28;54.40
70343;BME280;57767;42.068;24.752;2023-02-01T02:11:07;98975.16;;;3.24;54.67
70343;BME280;57767;42.068;24.752;2023-02-01T02:12:09;98956.88;;;3.16;54.69
70343;BME280;57767;42.068;24.752;2023-02-01T02:13:12;98969.28;;;3.31;54.81
70343;BME280;57767;42.068;24.752;2023-02-01T02:14:17;98971.75;;;3.32;54.79
70343;BME280;57767;42.068;24.752;2023-02-01T02:15:21;98967.34;;;3.33;54.89
70343;BME280;57767;42.068;24.752;2023-02-01T02:16:38;98964.25;;;3.29;54.75
70343;BME280;57767;42.068;24.752;2023-02-01T02:18:01;98968.47;;;3.30;55.15
70343;BME280;57767;42.068;24.752;2023-02-01T02:20:58;98964.41;;;3.28;54.51
70343;BME280;57767;42.068;24.752;2023-02-01T02:31:57;98972.25;;;3.36;54.36
70343;BME280;57767;42.068;24.752;2023-02-01T02:36:07;98983.66;;;3.35;54.71
70343;BME280;57767;42.068;24.752;2023-02-01T02:37:36;98981.88;;;3.35;55.30
70343;BME280;57767;42.068;24.752;2023-02-01T02:38:52;98983.00;;;3.33;55.35
70343;BME280;57767;42.068;24.752;2023-02-01T02:40:02;98986.13;;;3.36;55.30
70343;BME280;57767;42.068;24.752;2023-02-01T02:42:52;98983.22;;;3.39;55.01
70343;BME280;57767;42.068;24.752;2023-02-01T02:47:36;98986.94;;;3.45;55.18
70343;BME280;57767;42.068;24.752;2023-02-01T02:51:28;98985.47;;;3.42;55.45
70343;BME280;57767;42.068;24.752;2023-02-01T02:52:57;98980.09;;;3.36;55.13
70343;BME280;57767;42.068;24.752;2023-02-01T02:54:23;98984.69;;;3.42;55.60
70343;BME280;57767;42.068;24.752;2023-02-01T02:55:45;98980.44;;;3.41;55.61
70343;BME280;57767;42.068;24.752;2023-02-01T02:56:48;98983.69;;;3.43;55.17
70343;BME280;57767;42.068;24.752;2023-02-01T02:58:11;98976.81;;;3.34;56.23
70343;BME280;57767;42.068;24.752;2023-02-01T02:59:34;98979.78;;;3.39;55.90
70343;BME280;57767;42.068;24.752;2023-02-01T03:00:56;98976.97;;;3.32;56.01
70343;BME280;57767;42.068;24.752;2023-02-01T03:02:17;98976.16;;;3.32;55.56
70343;BME280;57767;42.068;24.752;2023-02-01T03:03:38;98978.59;;;3.33;55.80
70343;BME280;57767;42.068;24.752;2023-02-01T03:04:58;98983.81;;;3.33;56.70
70343;BME280;57767;42.068;24.752;2023-02-01T03:06:00;98959.16;;;3.19;56.37
70343;BME280;57767;42.068;24.752;2023-02-01T03:08:41;98987.91;;;3.28;57.17
70343;BME280;57767;42.068;24.752;2023-02-01T03:09:47;98978.75;;;3.23;56.94
70343;BME280;57767;42.068;24.752;2023-02-01T03:12:00;98979.91;;;3.29;57.20
70343;BME280;57767;42.068;24.752;2023-02-01T03:14:30;98972.25;;;3.28;56.84
70343;BME280;57767;42.068;24.752;2023-02-01T03:15:42;98982.34;;;3.31;57.30
70343;BME280;57767;42.068;24.752;2023-02-01T03:16:52;98984.63;;;3.26;57.03
70343;BME280;57767;42.068;24.752;2023-02-01T03:17:57;98975.81;;;3.27;56.72
70343;BME280;57767;42.068;24.752;2023-02-01T03:20:20;98991.94;;;3.22;57.75
70343;BME280;57767;42.068;24.752;2023-02-01T03:21:38;98967.63;;;3.13;57.56
70343;BME280;57767;42.068;24.752;2023-02-01T03:22:43;98980.84;;;3.20;57.63
70343;BME280;57767;42.068;24.752;2023-02-01T03:23:47;98978.72;;;3.15;57.74
70343;BME280;57767;42.068;24.752;2023-02-01T03:24:55;98981.34;;;3.15;57.71
70343;BME280;57767;42.068;24.752;2023-02-01T03:26:00;98977.41;;;3.11;57.88
70343;BME280;57767;42.068;24.752;2023-02-01T03:27:11;98983.75;;;3.09;57.46
70343;BME280;57767;42.068;24.752;2023-02-01T03:28:17;98987.16;;;3.09;58.09
70343;BME280;57767;42.068;24.752;2023-02-01T03:29:26;98988.97;;;3.09;57.68
70343;BME280;57767;42.068;24.752;2023-02-01T03:30:35;98984.56;;;3.09;57.99
70343;BME280;57767;42.068;24.752;2023-02-01T03:31:38;98988.97;;;3.09;58.24
70343;BME280;57767;42.068;24.752;2023-02-01T03:32:42;98992.38;;;3.09;58.17
70343;BME280;57767;42.068;24.752;2023-02-01T03:34:03;98990.25;;;3.05;58.19
70343;BME280;57767;42.068;24.752;2023-02-01T03:35:05;98971.50;;;3.01;57.83
70343;BME280;57767;42.068;24.752;2023-02-01T03:37:16;98974.38;;;2.90;58.07
70343;BME280;57767;42.068;24.752;2023-02-01T03:42:23;98979.94;;;2.95;58.05
70343;BME280;57767;42.068;24.752;2023-02-01T03:43:27;98990.41;;;3.03;58.21
70343;BME280;57767;42.068;24.752;2023-02-01T03:44:35;98986.81;;;3.04;58.38
70343;BME280;57767;42.068;24.752;2023-02-01T03:45:44;98996.28;;;3.05;58.29
70343;BME280;57767;42.068;24.752;2023-02-01T03:46:59;98998.88;;;3.05;58.61
70343;BME280;57767;42.068;24.752;2023-02-01T03:48:05;98988.13;;;3.00;58.29
70343;BME280;57767;42.068;24.752;2023-02-01T03:49:14;98985.34;;;3.02;58.42
70343;BME280;57767;42.068;24.752;2023-02-01T03:50:20;98991.06;;;3.05;58.69
70343;BME280;57767;42.068;24.752;2023-02-01T03:51:25;98980.28;;;3.00;58.59
70343;BME280;57767;42.068;24.752;2023-02-01T03:52:33;98987.16;;;3.01;58.49
70343;BME280;57767;42.068;24.752;2023-02-01T03:53:40;98996.09;;;2.99;58.26
70343;BME280;57767;42.068;24.752;2023-02-01T03:54:43;98993.34;;;3.00;58.10
70343;BME280;57767;42.068;24.752;2023-02-01T03:55:46;98993.63;;;2.97;58.80
70343;BME280;57767;42.068;24.752;2023-02-01T03:56:50;98992.66;;;2.98;58.51
70343;BME280;57767;42.068;24.752;2023-02-01T03:57:58;98988.13;;;3.00;58.63
70343;BME280;57767;42.068;24.752;2023-02-01T03:59:02;98994.31;;;2.99;58.60
70343;BME280;57767;42.068;24.752;2023-02-01T04:00:34;98987.91;;;2.94;58.00
70343;BME280;57767;42.068;24.752;2023-02-01T04:01:36;98991.81;;;2.90;58.57
70343;BME280;57767;42.068;24.752;2023-02-01T04:02:38;98985.78;;;2.89;58.83
70343;BME280;57767;42.068;24.752;2023-02-01T04:03:40;98978.78;;;2.90;58.26
70343;BME280;57767;42.068;24.752;2023-02-01T04:04:42;98992.81;;;2.97;57.76
70343;BME280;57767;42.068;24.752;2023-02-01T04:05:43;98993.94;;;2.94;58.20
70343;BME280;57767;42.068;24.752;2023-02-01T04:06:49;98992.31;;;2.93;58.57
70343;BME280;57767;42.068;24.752;2023-02-01T04:07:51;98992.31;;;2.93;58.30
70343;BME280;57767;42.068;24.752;2023-02-01T04:08:53;98984.44;;;2.85;58.46
70343;BME280;57767;42.068;24.752;2023-02-01T04:09:54;98980.06;;;2.85;58.14
70343;BME280;57767;42.068;24.752;2023-02-01T04:10:56;98994.91;;;2.93;58.29
70343;BME280;57767;42.068;24.752;2023-02-01T04:11:58;98986.25;;;2.84;57.83
70343;BME280;57767;42.068;24.752;2023-02-01T04:13:00;98991.59;;;2.83;58.09
70343;BME280;57767;42.068;24.752;2023-02-01T04:14:01;98989.66;;;2.85;57.71
70343;BME280;57767;42.068;24.752;2023-02-01T04:15:06;98987.06;;;2.85;57.58
70343;BME280;57767;42.068;24.752;2023-02-01T04:16:08;98999.78;;;2.88;58.11
70343;BME280;57767;42.068;24.752;2023-02-01T04:17:10;98994.69;;;2.78;57.93
70343;BME280;57767;42.068;24.752;2023-02-01T04:18:12;99007.78;;;2.86;57.77
70343;BME280;57767;42.068;24.752;2023-02-01T04:19:14;99003.69;;;2.84;57.34
70343;BME280;57767;42.068;24.752;2023-02-01T04:20:16;99008.22;;;2.82;57.40
70343;BME280;57767;42.068;24.752;2023-02-01T04:21:17;99007.56;;;2.80;57.31
70343;BME280;57767;42.068;24.752;2023-02-01T04:22:19;99007.41;;;2.81;57.46
70343;BME280;57767;42.068;24.752;2023-02-01T04:23:21;99015.75;;;2.85;56.84
70343;BME280;57767;42.068;24.752;2023-02-01T04:24:23;99015.22;;;2.81;56.90
70343;BME280;57767;42.068;24.752;2023-02-01T04:25:24;98999.41;;;2.75;56.97
70343;BME280;57767;42.068;24.752;2023-02-01T04:26:26;99011.13;;;2.79;56.92
70343;BME280;57767;42.068;24.752;2023-02-01T04:27:28;99004.75;;;2.73;56.56
70343;BME280;57767;42.068;24.752;2023-02-01T04:28:30;99016.03;;;2.82;56.21
70343;BME280;57767;42.068;24.752;2023-02-01T04:29:31;99019.31;;;2.84;55.94
70343;BME280;57767;42.068;24.752;2023-02-01T04:30:33;99022.72;;;2.76;56.26
70343;BME280;57767;42.068;24.752;2023-02-01T04:31:35;99017.34;;;2.78;56.41
70343;BME280;57767;42.068;24.752;2023-02-01T04:32:38;99017.50;;;2.76;56.30
70343;BME280;57767;42.068;24.752;2023-02-01T04:33:40;99020.84;;;2.69;56.29
70343;BME280;57767;42.068;24.752;2023-02-01T04:34:42;98997.34;;;2.61;56.95
70343;BME280;57767;42.068;24.752;2023-02-01T04:35:44;99006.19;;;2.68;56.51
70343;BME280;57767;42.068;24.752;2023-02-01T04:36:46;99016.81;;;2.74;56.86
70343;BME280;57767;42.068;24.752;2023-02-01T04:37:47;99010.66;;;2.75;56.46
70343;BME280;57767;42.068;24.752;2023-02-01T04:38:50;99021.22;;;2.74;56.36
70343;BME280;57767;42.068;24.752;2023-02-01T04:39:52;99014.22;;;2.74;56.18
70343;BME280;57767;42.068;24.752;2023-02-01T04:40:54;99010.44;;;2.69;56.01
70343;BME280;57767;42.068;24.752;2023-02-01T04:41:55;98999.13;;;2.60;55.89
70343;BME280;57767;42.068;24.752;2023-02-01T04:42:57;99007.00;;;2.68;55.94
70343;BME280;57767;42.068;24.752;2023-02-01T04:43:59;99006.00;;;2.61;56.20
70343;BME280;57767;42.068;24.752;2023-02-01T04:45:01;99018.41;;;2.67;55.89
70343;BME280;57767;42.068;24.752;2023-02-01T04:46:03;99015.63;;;2.69;56.11
70343;BME280;57767;42.068;24.752;2023-02-01T04:47:06;99017.56;;;2.67;55.44
70343;BME280;57767;42.068;24.752;2023-02-01T04:48:08;99011.88;;;2.63;55.17
70343;BME280;57767;42.068;24.752;2023-02-01T04:49:10;99024.75;;;2.65;54.63
70343;BME280;57767;42.068;24.752;2023-02-01T04:50:12;99020.38;;;2.65;54.47
70343;BME280;57767;42.068;24.752;2023-02-01T04:51:14;99005.03;;;2.62;54.57
70343;BME280;57767;42.068;24.752;2023-02-01T04:52:16;99011.41;;;2.68;54.39
70343;BME280;57767;42.068;24.752;2023-02-01T04:53:18;99015.63;;;2.69;54.34
70343;BME280;57767;42.068;24.752;2023-02-01T04:54:20;99009.94;;;2.65;54.91
70343;BME280;57767;42.068;24.752;2023-02-01T04:55:22;99011.72;;;2.65;54.70
70343;BME280;57767;42.068;24.752;2023-02-01T04:56:23;99013.81;;;2.61;54.32
70343;BME280;57767;42.068;24.752;2023-02-01T04:57:26;99024.75;;;2.65;54.57
70343;BME280;57767;42.068;24.752;2023-02-01T04:58:27;99010.00;;;2.56;54.67
70343;BME280;57767;42.068;24.752;2023-02-01T04:59:29;99010.13;;;2.46;54.79
70343;BME280;57767;42.068;24.752;2023-02-01T05:00:31;99006.44;;;2.57;54.73
70343;BME280;57767;42.068;24.752;2023-02-01T05:01:33;99020.81;;;2.61;54.20
70343;BME280;57767;42.068;24.752;2023-02-01T05:02:35;99019.84;;;2.62;54.45
70343;BME280;57767;42.068;24.752;2023-02-01T05:03:37;99019.03;;;2.61;53.89
70343;BME280;57767;42.068;24.752;2023-02-01T05:04:38;99022.75;;;2.59;53.93
70343;BME280;57767;42.068;24.752;2023-02-01T05:05:40;99031.91;;;2.63;53.68
70343;BME280;57767;42.068;24.752;2023-02-01T05:06:42;99037.13;;;2.63;54.31
70343;BME280;57767;42.068;24.752;2023-02-01T05:07:45;99038.09;;;2.62;53.70
70343;BME280;57767;42.068;24.752;2023-02-01T05:08:47;99018.50;;;2.58;54.37
70343;BME280;57767;42.068;24.752;2023-02-01T05:09:49;99034.38;;;2.64;53.83
70343;BME280;57767;42.068;24.752;2023-02-01T05:10:50;99026.88;;;2.69;53.39
70343;BME280;57767;42.068;24.752;2023-02-01T05:11:52;99037.03;;;2.72;53.47
70343;BME280;57767;42.068;24.752;2023-02-01T05:13:12;99034.25;;;2.74;53.56
70343;BME280;57767;42.068;24.752;2023-02-01T05:14:33;99039.19;;;2.77;53.28
70343;BME280;57767;42.068;24.752;2023-02-01T05:15:35;99030.84;;;2.73;53.28
70343;BME280;57767;42.068;24.752;2023-02-01T05:16:37;99011.53;;;2.66;53.58
70343;BME280;57767;42.068;24.752;2023-02-01T05:17:38;99026.44;;;2.74;52.79
70343;BME280;57767;42.068;24.752;2023-02-01T05:18:41;99031.84;;;2.80;53.21
70343;BME280;57767;42.068;24.752;2023-02-01T05:19:43;99033.16;;;2.76;52.53
70343;BME280;57767;42.068;24.752;2023-02-01T05:20:45;99031.53;;;2.83;53.09
70343;BME280;57767;42.068;24.752;2023-02-01T05:21:47;99030.72;;;2.83;52.38
70343;BME280;57767;42.068;24.752;2023-02-01T05:22:48;99035.94;;;2.83;52.97
70343;BME280;57767;42.068;24.752;2023-02-01T05:23:50;99020.81;;;2.86;52.86
70343;BME280;57767;42.068;24.752;2023-02-01T05:25:10;99023.13;;;2.90;52.74
70343;BME280;57767;42.068;24.752;2023-02-01T05:26:12;99022.44;;;2.87;51.90
70343;BME280;57767;42.068;24.752;2023-02-01T05:27:14;99017.91;;;2.90;52.46
70343;BME280;57767;42.068;24.752;2023-02-01T05:28:16;99016.09;;;2.90;51.86
70343;BME280;57767;42.068;24.752;2023-02-01T05:29:18;99014.00;;;2.94;51.85
70343;BME280;57767;42.068;24.752;2023-02-01T05:30:20;99022.84;;;3.01;52.03
70343;BME280;57767;42.068;24.752;2023-02-01T05:31:23;99026.28;;;3.01;52.25
70343;BME280;57767;42.068;24.752;2023-02-01T05:32:24;99021.22;;;3.00;51.94
70343;BME280;57767;42.068;24.752;2023-02-01T05:33:26;99015.31;;;2.98;51.94
70343;BME280;57767;42.068;24.752;2023-02-01T05:34:28;99016.31;;;3.05;51.82
70343;BME280;57767;42.068;24.752;2023-02-01T05:35:30;98999.00;;;2.96;52.33
70343;BME280;57767;42.068;24.752;2023-02-01T05:36:32;99013.56;;;3.06;52.13
70343;BME280;57767;42.068;24.752;2023-02-01T05:37:34;99017.47;;;3.02;52.30
70343;BME280;57767;42.068;24.752;2023-02-01T05:38:36;99015.03;;;3.01;51.95
70343;BME280;57767;42.068;24.752;2023-02-01T05:39:37;99017.47;;;3.02;51.67
70343;BME280;57767;42.068;24.752;2023-02-01T05:40:39;99022.34;;;3.05;51.49
70343;BME280;57767;42.068;24.752;2023-02-01T05:41:41;99011.63;;;3.08;51.37
70343;BME280;57767;42.068;24.752;2023-02-01T05:42:43;99019.13;;;3.03;51.30
70343;BME280;57767;42.068;24.752;2023-02-01T05:43:44;99015.50;;;3.04;52.03
70343;BME280;57767;42.068;24.752;2023-02-01T05:44:46;99018.47;;;3.09;51.40
70343;BME280;57767;42.068;24.752;2023-02-01T05:45:48;99026.00;;;3.12;51.51
70343;BME280;57767;42.068;24.752;2023-02-01T05:46:50;99020.78;;;3.12;50.94
70343;BME280;57767;42.068;24.752;2023-02-01T05:47:53;99013.63;;;3.14;50.36
70343;BME280;57767;42.068;24.752;2023-02-01T05:48:55;99020.81;;;3.20;50.52
70343;BME280;57767;42.068;24.752;2023-02-01T05:49:57;99013.13;;;3.19;50.41
70343;BME280;57767;42.068;24.752;2023-02-01T05:50:58;99011.63;;;3.08;50.66
70343;BME280;57767;42.068;24.752;2023-02-01T05:52:00;99017.53;;;3.18;50.48
70343;BME280;57767;42.068;24.752;2023-02-01T05:53:02;99005.28;;;3.19;50.08
70343;BME280;57767;42.068;24.752;2023-02-01T05:54:04;99022.47;;;3.30;49.28
70343;BME280;57767;42.068;24.752;2023-02-01T05:55:06;99015.28;;;3.23;49.88
70343;BME280;57767;42.068;24.752;2023-02-01T05:56:08;99017.22;;;3.21;50.43
70343;BME280;57767;42.068;24.752;2023-02-01T05:57:10;99017.56;;;3.27;49.84
70343;BME280;57767;42.068;24.752;2023-02-01T05:58:11;99010.75;;;3.34;49.63
70343;BME280;57767;42.068;24.752;2023-02-01T05:59:13;99024.59;;;3.34;49.05
70343;BME280;57767;42.068;24.752;2023-02-01T06:00:15;99014.31;;;3.33;48.89
70343;BME280;57767;42.068;24.752;2023-02-01T06:01:17;99015.81;;;3.43;48.95
70343;BME280;57767;42.068;24.752;2023-02-01T06:02:19;99015.81;;;3.43;48.31
70343;BME280;57767;42.068;24.752;2023-02-01T06:03:21;99009.78;;;3.35;48.58
70343;BME280;57767;42.068;24.752;2023-02-01T06:04:23;99029.53;;;3.45;48.42
70343;BME280;57767;42.068;24.752;2023-02-01T06:05:25;99014.91;;;3.52;48.66
70343;BME280;57767;42.068;24.752;2023-02-01T06:06:27;99017.34;;;3.54;48.33
70343;BME280;57767;42.068;24.752;2023-02-01T06:07:29;99021.75;;;3.53;47.78
70343;BME280;57767;42.068;24.752;2023-02-01T06:08:31;99006.25;;;3.52;47.95
70343;BME280;57767;42.068;24.752;2023-02-01T06:09:34;99024.88;;;3.65;48.01
70343;BME280;57767;42.068;24.752;2023-02-01T06:10:36;99020.78;;;3.63;47.49
70343;BME280;57767;42.068;24.752;2023-02-01T06:11:39;98983.69;;;3.43;47.74
70343;BME280;57767;42.068;24.752;2023-02-01T06:12:41;99021.44;;;3.65;47.84
70343;BME280;57767;42.068;24.752;2023-02-01T06:13:43;99018.34;;;3.69;47.52
70343;BME280;57767;42.068;24.752;2023-02-01T06:14:45;99019.00;;;3.71;47.39
70343;BME280;57767;42.068;24.752;2023-02-01T06:15:47;99019.50;;;3.83;46.83
70343;BME280;57767;42.068;24.752;2023-02-01T06:16:48;99026.53;;;3.82;46.56